<?xml version="1.0" encoding="UTF-8" standalone="no" ?><gpx xmlns="http://www.topografix.com/GPX/1/1" xmlns:gpxx="http://www.garmin.com/xmlschemas/GpxExtensions/v3" xmlns:gpxtrkx="http://www.garmin.com/xmlschemas/TrackStatsExtension/v1" xmlns:wptx1="http://www.garmin.com/xmlschemas/WaypointExtension/v1" xmlns:gpxtpx="http://www.garmin.com/xmlschemas/TrackPointExtension/v1" creator="Oregon 700" version="1.1" xmlns:xsi="http://www.w3.org/2001/XMLSchema-instance" xsi:schemaLocation="http://www.topografix.com/GPX/1/1 http://www.topografix.com/GPX/1/1/gpx.xsd http://www.garmin.com/xmlschemas/GpxExtensions/v3 http://www8.garmin.com/xmlschemas/GpxExtensionsv3.xsd http://www.garmin.com/xmlschemas/TrackStatsExtension/v1 http://www8.garmin.com/xmlschemas/TrackStatsExtension.xsd http://www.garmin.com/xmlschemas/WaypointExtension/v1 http://www8.garmin.com/xmlschemas/WaypointExtensionv1.xsd http://www.garmin.com/xmlschemas/TrackPointExtension/v1 http://www.garmin.com/xmlschemas/TrackPointExtensionv1.xsd"><metadata><link href="http://www.garmin.com"><text>Garmin International</text></link><time>2023-12-13T17:50:14Z</time></metadata><trk><name>Current Track: 13 DEC 2023 09:55</name><extensions><gpxx:TrackExtension><gpxx:DisplayColor>Cyan</gpxx:DisplayColor></gpxx:TrackExtension><gpxtrkx:TrackStatsExtension><gpxtrkx:Distance>4131.000</gpxtrkx:Distance><gpxtrkx:TimerTime>7492</gpxtrkx:TimerTime><gpxtrkx:TotalElapsedTime>28457</gpxtrkx:TotalElapsedTime><gpxtrkx:MovingTime>5760</gpxtrkx:MovingTime><gpxtrkx:StoppedTime>1731</gpxtrkx:StoppedTime><gpxtrkx:MovingSpeed>0.717</gpxtrkx:MovingSpeed><gpxtrkx:MaxSpeed>1.075</gpxtrkx:MaxSpeed><gpxtrkx:MaxElevation>27.898</gpxtrkx:MaxElevation><gpxtrkx:MinElevation>2.249</gpxtrkx:MinElevation><gpxtrkx:Ascent>55.000</gpxtrkx:Ascent><gpxtrkx:Descent>72.491</gpxtrkx:Descent><gpxtrkx:AvgAscentRate>0.031</gpxtrkx:AvgAscentRate><gpxtrkx:MaxAscentRate>0.028</gpxtrkx:MaxAscentRate><gpxtrkx:AvgDescentRate>0.035</gpxtrkx:AvgDescentRate><gpxtrkx:MaxDescentRate>-0.056</gpxtrkx:MaxDescentRate><gpxtrkx:Calories>171</gpxtrkx:Calories></gpxtrkx:TrackStatsExtension></extensions><trkseg><trkpt lat="51.9158621226" lon="-2.2076943889"><ele>23.08</ele><time>2023-12-13T09:55:57Z</time></trkpt><trkpt lat="51.9158674870" lon="-2.2077003401"><ele>25.37</ele><time>2023-12-13T09:56:18Z</time></trkpt><trkpt lat="51.9159670640" lon="-2.2077178583"><ele>22.22</ele><time>2023-12-13T09:56:39Z</time></trkpt><trkpt lat="51.9160342030" lon="-2.2075394914"><ele>22.62</ele><time>2023-12-13T09:56:59Z</time></trkpt><trkpt lat="51.9161093887" lon="-2.2072854359"><ele>21.30</ele><time>2023-12-13T09:57:21Z</time></trkpt><trkpt lat="51.9161877595" lon="-2.2070320509"><ele>20.34</ele><time>2023-12-13T09:57:43Z</time></trkpt><trkpt lat="51.9162736740" lon="-2.2067855392"><ele>19.07</ele><time>2023-12-13T09:58:06Z</time></trkpt><trkpt lat="51.9163674675" lon="-2.2064982913"><ele>18.26</ele><time>2023-12-13T09:58:27Z</time></trkpt><trkpt lat="51.9164560642" lon="-2.2062025778"><ele>17.10</ele><time>2023-12-13T09:58:50Z</time></trkpt><trkpt lat="51.9164912682" lon="-2.2060736641"><ele>16.67</ele><time>2023-12-13T09:59:02Z</time></trkpt><trkpt lat="51.9165657833" lon="-2.2057849914"><ele>15.75</ele><time>2023-12-13T09:59:22Z</time></trkpt><trkpt lat="51.9166683778" lon="-2.2054359689"><ele>14.88</ele><time>2023-12-13T09:59:42Z</time></trkpt><trkpt lat="51.9166821241" lon="-2.2052376531"><ele>14.81</ele><time>2023-12-13T09:59:57Z</time></trkpt><trkpt lat="51.9166123867" lon="-2.2051156964"><ele>15.37</ele><time>2023-12-13T10:00:19Z</time></trkpt><trkpt lat="51.9165757578" lon="-2.2048955876"><ele>14.78</ele><time>2023-12-13T10:00:36Z</time></trkpt><trkpt lat="51.9166407175" lon="-2.2046639957"><ele>14.53</ele><time>2023-12-13T10:00:54Z</time></trkpt><trkpt lat="51.9167167414" lon="-2.2044287995"><ele>13.55</ele><time>2023-12-13T10:01:11Z</time></trkpt><trkpt lat="51.9167960342" lon="-2.2041428089"><ele>12.69</ele><time>2023-12-13T10:01:34Z</time></trkpt><trkpt lat="51.9168537855" lon="-2.2038364504"><ele>12.87</ele><time>2023-12-13T10:01:54Z</time></trkpt><trkpt lat="51.9169177394" lon="-2.2036240529"><ele>12.72</ele><time>2023-12-13T10:02:10Z</time></trkpt><trkpt lat="51.9169829506" lon="-2.2033488750"><ele>12.44</ele><time>2023-12-13T10:02:31Z</time></trkpt><trkpt lat="51.9170279615" lon="-2.2030659020"><ele>12.45</ele><time>2023-12-13T10:02:50Z</time></trkpt><trkpt lat="51.9170723855" lon="-2.2028202284"><ele>12.49</ele><time>2023-12-13T10:03:08Z</time></trkpt><trkpt lat="51.9171256945" lon="-2.2025613952"><ele>12.80</ele><time>2023-12-13T10:03:26Z</time></trkpt><trkpt lat="51.9171526842" lon="-2.2023136262"><ele>12.79</ele><time>2023-12-13T10:03:42Z</time></trkpt><trkpt lat="51.9171837810" lon="-2.2020629235"><ele>12.86</ele><time>2023-12-13T10:04:01Z</time></trkpt><trkpt lat="51.9172180630" lon="-2.2018770967"><ele>12.73</ele><time>2023-12-13T10:04:14Z</time></trkpt><trkpt lat="51.9172764849" lon="-2.2016312554"><ele>12.96</ele><time>2023-12-13T10:04:32Z</time></trkpt><trkpt lat="51.9173690211" lon="-2.2014003340"><ele>13.09</ele><time>2023-12-13T10:04:54Z</time></trkpt><trkpt lat="51.9174746331" lon="-2.2011602763"><ele>12.62</ele><time>2023-12-13T10:05:15Z</time></trkpt><trkpt lat="51.9176128507" lon="-2.2009407543"><ele>12.87</ele><time>2023-12-13T10:05:35Z</time></trkpt><trkpt lat="51.9177408423" lon="-2.2007376608"><ele>12.81</ele><time>2023-12-13T10:05:55Z</time></trkpt><trkpt lat="51.9178690854" lon="-2.2005783208"><ele>12.70</ele><time>2023-12-13T10:06:14Z</time></trkpt><trkpt lat="51.9180592708" lon="-2.2002836131"><ele>12.61</ele><time>2023-12-13T10:06:42Z</time></trkpt><trkpt lat="51.9181619491" lon="-2.2001478262"><ele>12.85</ele><time>2023-12-13T10:06:59Z</time></trkpt><trkpt lat="51.9182753563" lon="-2.2001357563"><ele>12.71</ele><time>2023-12-13T10:07:15Z</time></trkpt><trkpt lat="51.9184206985" lon="-2.2000624146"><ele>12.50</ele><time>2023-12-13T10:07:37Z</time></trkpt><trkpt lat="51.9185175095" lon="-2.2000403702"><ele>12.50</ele><time>2023-12-13T10:07:57Z</time></trkpt><trkpt lat="51.9186135661" lon="-2.2000360116"><ele>12.50</ele><time>2023-12-13T10:08:20Z</time></trkpt><trkpt lat="51.9186864048" lon="-2.2000516020"><ele>12.50</ele><time>2023-12-13T10:08:45Z</time></trkpt><trkpt lat="51.9188478403" lon="-2.2000332456"><ele>12.50</ele><time>2023-12-13T10:09:08Z</time></trkpt><trkpt lat="51.9188594911" lon="-2.2000316530"><ele>12.50</ele><time>2023-12-13T10:09:32Z</time></trkpt><trkpt lat="51.9188489299" lon="-2.2000570502"><ele>12.50</ele><time>2023-12-13T10:09:52Z</time></trkpt><trkpt lat="51.9188781828" lon="-2.2000365984"><ele>12.50</ele><time>2023-12-13T10:10:13Z</time></trkpt><trkpt lat="51.9190385286" lon="-2.1999980416"><ele>12.50</ele><time>2023-12-13T10:10:36Z</time></trkpt><trkpt lat="51.9191251136" lon="-2.1999449003"><ele>12.50</ele><time>2023-12-13T10:10:55Z</time></trkpt><trkpt lat="51.9192180689" lon="-2.1999079362"><ele>12.50</ele><time>2023-12-13T10:11:14Z</time></trkpt><trkpt lat="51.9193393551" lon="-2.1998518612"><ele>12.50</ele><time>2023-12-13T10:11:35Z</time></trkpt><trkpt lat="51.9194242638" lon="-2.1998088621"><ele>12.50</ele><time>2023-12-13T10:11:56Z</time></trkpt><trkpt lat="51.9194889721" lon="-2.1998102032"><ele>12.50</ele><time>2023-12-13T10:12:17Z</time></trkpt><trkpt lat="51.9196296204" lon="-2.1996925212"><ele>12.50</ele><time>2023-12-13T10:12:37Z</time></trkpt><trkpt lat="51.9197385013" lon="-2.1996128932"><ele>12.50</ele><time>2023-12-13T10:12:59Z</time></trkpt><trkpt lat="51.9198659901" lon="-2.1995298285"><ele>12.50</ele><time>2023-12-13T10:13:17Z</time></trkpt><trkpt lat="51.9199629687" lon="-2.1994331852"><ele>12.50</ele><time>2023-12-13T10:13:38Z</time></trkpt><trkpt lat="51.9200442731" lon="-2.1993733384"><ele>12.50</ele><time>2023-12-13T10:14:00Z</time></trkpt><trkpt lat="51.9200588576" lon="-2.1994211152"><ele>12.50</ele><time>2023-12-13T10:14:23Z</time></trkpt><trkpt lat="51.9200631324" lon="-2.1994145773"><ele>12.50</ele><time>2023-12-13T10:14:48Z</time></trkpt><trkpt lat="51.9200727716" lon="-2.1993357036"><ele>12.50</ele><time>2023-12-13T10:15:08Z</time></trkpt><trkpt lat="51.9202358834" lon="-2.1992236376"><ele>12.50</ele><time>2023-12-13T10:15:28Z</time></trkpt><trkpt lat="51.9203880150" lon="-2.1991271619"><ele>12.50</ele><time>2023-12-13T10:15:52Z</time></trkpt><trkpt lat="51.9205106422" lon="-2.1990339551"><ele>12.50</ele><time>2023-12-13T10:16:12Z</time></trkpt><trkpt lat="51.9206650369" lon="-2.1989047900"><ele>12.50</ele><time>2023-12-13T10:16:35Z</time></trkpt><trkpt lat="51.9208086189" lon="-2.1987291053"><ele>12.50</ele><time>2023-12-13T10:16:58Z</time></trkpt><trkpt lat="51.9209123868" lon="-2.1985946596"><ele>12.50</ele><time>2023-12-13T10:17:20Z</time></trkpt><trkpt lat="51.9210195076" lon="-2.1984565258"><ele>12.50</ele><time>2023-12-13T10:17:41Z</time></trkpt><trkpt lat="51.9211604074" lon="-2.1982644964"><ele>12.50</ele><time>2023-12-13T10:18:06Z</time></trkpt><trkpt lat="51.9211669452" lon="-2.1982857026"><ele>12.50</ele><time>2023-12-13T10:18:28Z</time></trkpt><trkpt lat="51.9211880676" lon="-2.1983036399"><ele>4.25</ele><time>2023-12-13T10:18:41Z</time></trkpt><trkpt lat="51.9211891573" lon="-2.1982982755"><ele>6.00</ele><time>2023-12-13T10:18:42Z</time></trkpt><trkpt lat="51.9211905822" lon="-2.1982897259"><ele>9.07</ele><time>2023-12-13T10:18:45Z</time></trkpt><trkpt lat="51.9211911689" lon="-2.1982842777"><ele>10.17</ele><time>2023-12-13T10:18:47Z</time></trkpt><trkpt lat="51.9211932644" lon="-2.1982929949"><ele>13.38</ele><time>2023-12-13T10:18:52Z</time></trkpt><trkpt lat="51.9211820327" lon="-2.1982800029"><ele>10.76</ele><time>2023-12-13T10:19:14Z</time></trkpt><trkpt lat="51.9211811945" lon="-2.1982836071"><ele>7.01</ele><time>2023-12-13T10:19:18Z</time></trkpt><trkpt lat="51.9211813621" lon="-2.1982815117"><ele>6.38</ele><time>2023-12-13T10:19:20Z</time></trkpt><trkpt lat="51.9211812783" lon="-2.1982633229"><ele>9.82</ele><time>2023-12-13T10:19:22Z</time></trkpt><trkpt lat="51.9211749081" lon="-2.1982365008"><ele>13.83</ele><time>2023-12-13T10:19:24Z</time></trkpt><trkpt lat="51.9211106189" lon="-2.1981687751"><ele>11.76</ele><time>2023-12-13T10:19:48Z</time></trkpt><trkpt lat="51.9210605789" lon="-2.1981748100"><ele>11.69</ele><time>2023-12-13T10:20:09Z</time></trkpt><trkpt lat="51.9210155681" lon="-2.1980531048"><ele>12.03</ele><time>2023-12-13T10:20:30Z</time></trkpt><trkpt lat="51.9209042564" lon="-2.1977789328"><ele>12.05</ele><time>2023-12-13T10:20:55Z</time></trkpt><trkpt lat="51.9208018295" lon="-2.1976481751"><ele>12.05</ele><time>2023-12-13T10:21:14Z</time></trkpt><trkpt lat="51.9206955470" lon="-2.1975459997"><ele>12.05</ele><time>2023-12-13T10:21:33Z</time></trkpt><trkpt lat="51.9207147416" lon="-2.1974566486"><ele>12.05</ele><time>2023-12-13T10:21:52Z</time></trkpt><trkpt lat="51.9206954632" lon="-2.1974461712"><ele>12.05</ele><time>2023-12-13T10:22:17Z</time></trkpt><trkpt lat="51.9205890968" lon="-2.1974220313"><ele>12.05</ele><time>2023-12-13T10:22:42Z</time></trkpt><trkpt lat="51.9205433317" lon="-2.1974050160"><ele>12.05</ele><time>2023-12-13T10:22:48Z</time></trkpt><trkpt lat="51.9203618634" lon="-2.1974665392"><ele>12.05</ele><time>2023-12-13T10:23:16Z</time></trkpt><trkpt lat="51.9202789664" lon="-2.1975067724"><ele>12.05</ele><time>2023-12-13T10:23:39Z</time></trkpt><trkpt lat="51.9202299323" lon="-2.1975500230"><ele>12.05</ele><time>2023-12-13T10:24:06Z</time></trkpt><trkpt lat="51.9202112406" lon="-2.1975243744"><ele>12.05</ele><time>2023-12-13T10:24:32Z</time></trkpt><trkpt lat="51.9202142581" lon="-2.1975194290"><ele>12.05</ele><time>2023-12-13T10:24:49Z</time></trkpt><trkpt lat="51.9202019367" lon="-2.1975229494"><ele>12.05</ele><time>2023-12-13T10:25:18Z</time></trkpt><trkpt lat="51.9201912917" lon="-2.1975433175"><ele>12.05</ele><time>2023-12-13T10:25:47Z</time></trkpt><trkpt lat="51.9201948121" lon="-2.1975633502"><ele>12.05</ele><time>2023-12-13T10:26:11Z</time></trkpt><trkpt lat="51.9201965723" lon="-2.1975322533"><ele>12.05</ele><time>2023-12-13T10:26:40Z</time></trkpt><trkpt lat="51.9201976620" lon="-2.1975387074"><ele>12.05</ele><time>2023-12-13T10:27:07Z</time></trkpt><trkpt lat="51.9202036131" lon="-2.1975306608"><ele>12.05</ele><time>2023-12-13T10:27:35Z</time></trkpt><trkpt lat="51.9202033617" lon="-2.1975206025"><ele>12.05</ele><time>2023-12-13T10:28:00Z</time></trkpt><trkpt lat="51.9201813173" lon="-2.1975185070"><ele>12.05</ele><time>2023-12-13T10:28:28Z</time></trkpt><trkpt lat="51.9201788865" lon="-2.1975264698"><ele>12.05</ele><time>2023-12-13T10:28:54Z</time></trkpt><trkpt lat="51.9201507233" lon="-2.1975420602"><ele>12.05</ele><time>2023-12-13T10:29:15Z</time></trkpt><trkpt lat="51.9201328699" lon="-2.1975665353"><ele>12.05</ele><time>2023-12-13T10:29:39Z</time></trkpt><trkpt lat="51.9201817364" lon="-2.1975584049"><ele>12.05</ele><time>2023-12-13T10:30:02Z</time></trkpt><trkpt lat="51.9202010985" lon="-2.1975506097"><ele>12.05</ele><time>2023-12-13T10:30:26Z</time></trkpt><trkpt lat="51.9202079717" lon="-2.1975319181"><ele>12.05</ele><time>2023-12-13T10:30:52Z</time></trkpt><trkpt lat="51.9202103186" lon="-2.1974939480"><ele>12.05</ele><time>2023-12-13T10:31:15Z</time></trkpt><trkpt lat="51.9201905373" lon="-2.1974627674"><ele>12.05</ele><time>2023-12-13T10:31:37Z</time></trkpt><trkpt lat="51.9201113284" lon="-2.1973604243"><ele>12.05</ele><time>2023-12-13T10:31:56Z</time></trkpt><trkpt lat="51.9200858474" lon="-2.1973797865"><ele>12.05</ele><time>2023-12-13T10:32:24Z</time></trkpt><trkpt lat="51.9201013539" lon="-2.1973830555"><ele>12.05</ele><time>2023-12-13T10:32:52Z</time></trkpt><trkpt lat="51.9200386573" lon="-2.1973453369"><ele>12.05</ele><time>2023-12-13T10:33:18Z</time></trkpt><trkpt lat="51.9199123420" lon="-2.1972998232"><ele>12.05</ele><time>2023-12-13T10:33:37Z</time></trkpt><trkpt lat="51.9198198058" lon="-2.1972435806"><ele>12.05</ele><time>2023-12-13T10:33:58Z</time></trkpt><trkpt lat="51.9196794089" lon="-2.1971724182"><ele>12.05</ele><time>2023-12-13T10:34:18Z</time></trkpt><trkpt lat="51.9195690192" lon="-2.1971098892"><ele>12.05</ele><time>2023-12-13T10:34:38Z</time></trkpt><trkpt lat="51.9195305463" lon="-2.1970675606"><ele>17.14</ele><time>2023-12-13T10:34:57Z</time></trkpt><trkpt lat="51.9195284508" lon="-2.1970671415"><ele>17.21</ele><time>2023-12-13T10:34:58Z</time></trkpt><trkpt lat="51.9194815960" lon="-2.1970332786"><ele>16.93</ele><time>2023-12-13T10:35:25Z</time></trkpt><trkpt lat="51.9194877986" lon="-2.1970485337"><ele>16.85</ele><time>2023-12-13T10:35:55Z</time></trkpt><trkpt lat="51.9194874633" lon="-2.1970623638"><ele>17.23</ele><time>2023-12-13T10:36:20Z</time></trkpt><trkpt lat="51.9194769021" lon="-2.1970490366"><ele>16.53</ele><time>2023-12-13T10:36:47Z</time></trkpt><trkpt lat="51.9194608089" lon="-2.1970695723"><ele>16.69</ele><time>2023-12-13T10:37:14Z</time></trkpt><trkpt lat="51.9194763992" lon="-2.1970255673"><ele>16.75</ele><time>2023-12-13T10:37:39Z</time></trkpt><trkpt lat="51.9194817636" lon="-2.1970102284"><ele>16.82</ele><time>2023-12-13T10:38:06Z</time></trkpt><trkpt lat="51.9194928277" lon="-2.1970257349"><ele>16.61</ele><time>2023-12-13T10:38:35Z</time></trkpt><trkpt lat="51.9194815960" lon="-2.1970106475"><ele>16.78</ele><time>2023-12-13T10:38:57Z</time></trkpt><trkpt lat="51.9194646645" lon="-2.1970240586"><ele>16.52</ele><time>2023-12-13T10:39:19Z</time></trkpt><trkpt lat="51.9194686040" lon="-2.1970718354"><ele>16.67</ele><time>2023-12-13T10:39:44Z</time></trkpt><trkpt lat="51.9194604736" lon="-2.1970449295"><ele>16.77</ele><time>2023-12-13T10:40:07Z</time></trkpt><trkpt lat="51.9194289576" lon="-2.1970605198"><ele>17.15</ele><time>2023-12-13T10:40:38Z</time></trkpt><trkpt lat="51.9193796720" lon="-2.1970994119"><ele>17.63</ele><time>2023-12-13T10:41:08Z</time></trkpt><trkpt lat="51.9193204958" lon="-2.1971418243"><ele>19.14</ele><time>2023-12-13T10:41:29Z</time></trkpt><trkpt lat="51.9193287939" lon="-2.1970885992"><ele>19.00</ele><time>2023-12-13T10:41:53Z</time></trkpt><trkpt lat="51.9192934223" lon="-2.1970899403"><ele>19.04</ele><time>2023-12-13T10:42:19Z</time></trkpt><trkpt lat="51.9193056598" lon="-2.1971277427"><ele>19.37</ele><time>2023-12-13T10:42:43Z</time></trkpt><trkpt lat="51.9192620739" lon="-2.1971419081"><ele>18.52</ele><time>2023-12-13T10:43:07Z</time></trkpt><trkpt lat="51.9192092679" lon="-2.1971150022"><ele>20.46</ele><time>2023-12-13T10:43:30Z</time></trkpt><trkpt lat="51.9191153068" lon="-2.1968913730"><ele>23.47</ele><time>2023-12-13T10:43:54Z</time></trkpt><trkpt lat="51.9190833718" lon="-2.1968488768"><ele>23.83</ele><time>2023-12-13T10:44:17Z</time></trkpt><trkpt lat="51.9190866407" lon="-2.1968394890"><ele>24.61</ele><time>2023-12-13T10:44:45Z</time></trkpt><trkpt lat="51.9190604053" lon="-2.1968891937"><ele>23.84</ele><time>2023-12-13T10:45:08Z</time></trkpt><trkpt lat="51.9190022349" lon="-2.1968865953"><ele>23.84</ele><time>2023-12-13T10:45:18Z</time></trkpt><trkpt lat="51.9189176615" lon="-2.1968684904"><ele>25.23</ele><time>2023-12-13T10:45:38Z</time></trkpt><trkpt lat="51.9188925996" lon="-2.1968936361"><ele>25.82</ele><time>2023-12-13T10:45:52Z</time></trkpt><trkpt lat="51.9188715611" lon="-2.1968844999"><ele>25.85</ele><time>2023-12-13T10:45:54Z</time></trkpt><trkpt lat="51.9187039230" lon="-2.1968231443"><ele>26.98</ele><time>2023-12-13T10:46:12Z</time></trkpt><trkpt lat="51.9186872430" lon="-2.1966849267"><ele>27.20</ele><time>2023-12-13T10:46:26Z</time></trkpt><trkpt lat="51.9186890870" lon="-2.1966833342"><ele>25.49</ele><time>2023-12-13T10:46:34Z</time></trkpt><trkpt lat="51.9186775200" lon="-2.1966675762"><ele>28.57</ele><time>2023-12-13T10:46:43Z</time></trkpt><trkpt lat="51.9186153263" lon="-2.1967622917"><ele>27.17</ele><time>2023-12-13T10:47:04Z</time></trkpt><trkpt lat="51.9185089599" lon="-2.1968952287"><ele>27.55</ele><time>2023-12-13T10:47:25Z</time></trkpt><trkpt lat="51.9183440879" lon="-2.1970548201"><ele>27.61</ele><time>2023-12-13T10:47:48Z</time></trkpt><trkpt lat="51.9182010926" lon="-2.1971993241"><ele>27.02</ele><time>2023-12-13T10:48:19Z</time></trkpt><trkpt lat="51.9180003460" lon="-2.1973679680"><ele>25.79</ele><time>2023-12-13T10:48:43Z</time></trkpt><trkpt lat="51.9179235678" lon="-2.1974012442"><ele>25.69</ele><time>2023-12-13T10:49:08Z</time></trkpt><trkpt lat="51.9178518187" lon="-2.1973364521"><ele>24.60</ele><time>2023-12-13T10:49:35Z</time></trkpt><trkpt lat="51.9178841729" lon="-2.1972039342"><ele>25.24</ele><time>2023-12-13T10:49:58Z</time></trkpt><trkpt lat="51.9178826641" lon="-2.1972136572"><ele>27.86</ele><time>2023-12-13T10:50:07Z</time></trkpt><trkpt lat="51.9178731088" lon="-2.1972293314"><ele>27.31</ele><time>2023-12-13T10:50:10Z</time></trkpt><trkpt lat="51.9179042056" lon="-2.1971834823"><ele>26.15</ele><time>2023-12-13T10:50:30Z</time></trkpt><trkpt lat="51.9179184549" lon="-2.1972299181"><ele>25.95</ele><time>2023-12-13T10:50:52Z</time></trkpt><trkpt lat="51.9179068878" lon="-2.1971964743"><ele>25.47</ele><time>2023-12-13T10:51:17Z</time></trkpt><trkpt lat="51.9179011881" lon="-2.1972585004"><ele>26.14</ele><time>2023-12-13T10:51:53Z</time></trkpt><trkpt lat="51.9178889506" lon="-2.1971203666"><ele>26.14</ele><time>2023-12-13T10:52:37Z</time></trkpt><trkpt lat="51.9179105759" lon="-2.1971289162"><ele>26.14</ele><time>2023-12-13T10:53:08Z</time></trkpt><trkpt lat="51.9178959075" lon="-2.1971335262"><ele>26.14</ele><time>2023-12-13T10:53:41Z</time></trkpt><trkpt lat="51.9178820774" lon="-2.1971699037"><ele>26.14</ele><time>2023-12-13T10:54:10Z</time></trkpt><trkpt lat="51.9178909622" lon="-2.1971738432"><ele>26.14</ele><time>2023-12-13T10:54:43Z</time></trkpt><trkpt lat="51.9178684987" lon="-2.1971870027"><ele>26.14</ele><time>2023-12-13T10:55:14Z</time></trkpt><trkpt lat="51.9178717677" lon="-2.1971586719"><ele>26.14</ele><time>2023-12-13T10:55:44Z</time></trkpt><trkpt lat="51.9179066364" lon="-2.1971530560"><ele>26.14</ele><time>2023-12-13T10:56:27Z</time></trkpt><trkpt lat="51.9179188740" lon="-2.1971551515"><ele>26.14</ele><time>2023-12-13T10:56:55Z</time></trkpt><trkpt lat="51.9179154374" lon="-2.1971480269"><ele>26.14</ele><time>2023-12-13T10:57:35Z</time></trkpt><trkpt lat="51.9178957399" lon="-2.1971538942"><ele>26.14</ele><time>2023-12-13T10:57:56Z</time></trkpt><trkpt lat="51.9179115817" lon="-2.1971472725"><ele>26.14</ele><time>2023-12-13T10:58:24Z</time></trkpt><trkpt lat="51.9179148506" lon="-2.1971808840"><ele>26.14</ele><time>2023-12-13T10:58:45Z</time></trkpt><trkpt lat="51.9179436006" lon="-2.1972043533"><ele>26.14</ele><time>2023-12-13T10:59:08Z</time></trkpt><trkpt lat="51.9179542456" lon="-2.1972105559"><ele>26.14</ele><time>2023-12-13T10:59:36Z</time></trkpt><trkpt lat="51.9179810677" lon="-2.1971937083"><ele>26.14</ele><time>2023-12-13T10:59:58Z</time></trkpt><trkpt lat="51.9179904554" lon="-2.1971808840"><ele>26.14</ele><time>2023-12-13T11:00:21Z</time></trkpt><trkpt lat="51.9180352986" lon="-2.1971495356"><ele>26.14</ele><time>2023-12-13T11:00:45Z</time></trkpt><trkpt lat="51.9180449378" lon="-2.1971833147"><ele>26.14</ele><time>2023-12-13T11:01:08Z</time></trkpt><trkpt lat="51.9180450216" lon="-2.1971983183"><ele>26.14</ele><time>2023-12-13T11:01:32Z</time></trkpt><trkpt lat="51.9180298503" lon="-2.1971755195"><ele>26.14</ele><time>2023-12-13T11:01:57Z</time></trkpt><trkpt lat="51.9180215523" lon="-2.1971600130"><ele>26.14</ele><time>2023-12-13T11:02:22Z</time></trkpt><trkpt lat="51.9179444388" lon="-2.1971383877"><ele>26.14</ele><time>2023-12-13T11:02:40Z</time></trkpt><trkpt lat="51.9179342967" lon="-2.1971293353"><ele>26.14</ele><time>2023-12-13T11:03:08Z</time></trkpt><trkpt lat="51.9179003499" lon="-2.1972097177"><ele>26.14</ele><time>2023-12-13T11:03:35Z</time></trkpt><trkpt lat="51.9178985897" lon="-2.1972474363"><ele>26.14</ele><time>2023-12-13T11:04:06Z</time></trkpt><trkpt lat="51.9178712647" lon="-2.1972311754"><ele>26.14</ele><time>2023-12-13T11:04:25Z</time></trkpt><trkpt lat="51.9178048801" lon="-2.1971398965"><ele>26.14</ele><time>2023-12-13T11:04:48Z</time></trkpt><trkpt lat="51.9177826680" lon="-2.1970840730"><ele>26.14</ele><time>2023-12-13T11:05:15Z</time></trkpt><trkpt lat="51.9177533314" lon="-2.1970843244"><ele>26.14</ele><time>2023-12-13T11:05:37Z</time></trkpt><trkpt lat="51.9177812431" lon="-2.1970450971"><ele>26.14</ele><time>2023-12-13T11:06:02Z</time></trkpt><trkpt lat="51.9177896250" lon="-2.1969640441"><ele>26.14</ele><time>2023-12-13T11:06:22Z</time></trkpt><trkpt lat="51.9178093225" lon="-2.1968772076"><ele>26.14</ele><time>2023-12-13T11:06:49Z</time></trkpt><trkpt lat="51.9176916406" lon="-2.1970258188"><ele>22.27</ele><time>2023-12-13T11:17:52Z</time></trkpt><trkpt lat="51.9176398404" lon="-2.1970112342"><ele>22.27</ele><time>2023-12-13T11:18:15Z</time></trkpt><trkpt lat="51.9175386708" lon="-2.1969093103"><ele>22.27</ele><time>2023-12-13T11:18:40Z</time></trkpt><trkpt lat="51.9174543489" lon="-2.1967736073"><ele>22.27</ele><time>2023-12-13T11:19:04Z</time></trkpt><trkpt lat="51.9174443744" lon="-2.1967546642"><ele>18.70</ele><time>2023-12-13T11:19:07Z</time></trkpt><trkpt lat="51.9174369145" lon="-2.1967508085"><ele>18.82</ele><time>2023-12-13T11:19:08Z</time></trkpt><trkpt lat="51.9173867907" lon="-2.1966512315"><ele>17.98</ele><time>2023-12-13T11:19:30Z</time></trkpt><trkpt lat="51.9173541013" lon="-2.1965498943"><ele>17.39</ele><time>2023-12-13T11:19:54Z</time></trkpt><trkpt lat="51.9172940031" lon="-2.1965488046"><ele>17.22</ele><time>2023-12-13T11:20:12Z</time></trkpt><trkpt lat="51.9173479825" lon="-2.1965058893"><ele>17.63</ele><time>2023-12-13T11:20:32Z</time></trkpt><trkpt lat="51.9174070749" lon="-2.1964736190"><ele>17.84</ele><time>2023-12-13T11:20:51Z</time></trkpt><trkpt lat="51.9173173048" lon="-2.1965097450"><ele>17.32</ele><time>2023-12-13T11:21:06Z</time></trkpt><trkpt lat="51.9172215834" lon="-2.1966690850"><ele>16.70</ele><time>2023-12-13T11:21:26Z</time></trkpt><trkpt lat="51.9171378482" lon="-2.1964457911"><ele>15.75</ele><time>2023-12-13T11:21:46Z</time></trkpt><trkpt lat="51.9171006326" lon="-2.1963082440"><ele>15.16</ele><time>2023-12-13T11:22:05Z</time></trkpt><trkpt lat="51.9170984533" lon="-2.1962946653"><ele>15.29</ele><time>2023-12-13T11:22:25Z</time></trkpt><trkpt lat="51.9169980381" lon="-2.1962709446"><ele>14.21</ele><time>2023-12-13T11:22:43Z</time></trkpt><trkpt lat="51.9168345071" lon="-2.1964357328"><ele>13.00</ele><time>2023-12-13T11:23:10Z</time></trkpt><trkpt lat="51.9167392887" lon="-2.1965511516"><ele>12.60</ele><time>2023-12-13T11:23:30Z</time></trkpt><trkpt lat="51.9166203495" lon="-2.1967011876"><ele>11.84</ele><time>2023-12-13T11:23:49Z</time></trkpt><trkpt lat="51.9165370334" lon="-2.1968756989"><ele>10.95</ele><time>2023-12-13T11:24:09Z</time></trkpt><trkpt lat="51.9164926093" lon="-2.1970035229"><ele>9.98</ele><time>2023-12-13T11:24:25Z</time></trkpt><trkpt lat="51.9163772743" lon="-2.1972444188"><ele>8.89</ele><time>2023-12-13T11:24:47Z</time></trkpt><trkpt lat="51.9162419904" lon="-2.1973782778"><ele>7.49</ele><time>2023-12-13T11:25:13Z</time></trkpt><trkpt lat="51.9160660543" lon="-2.1974944510"><ele>6.67</ele><time>2023-12-13T11:25:41Z</time></trkpt><trkpt lat="51.9159115758" lon="-2.1976214368"><ele>6.02</ele><time>2023-12-13T11:26:12Z</time></trkpt><trkpt lat="51.9157407526" lon="-2.1977383643"><ele>5.36</ele><time>2023-12-13T11:26:44Z</time></trkpt><trkpt lat="51.9155520760" lon="-2.1978531126"><ele>5.11</ele><time>2023-12-13T11:27:13Z</time></trkpt><trkpt lat="51.9154940732" lon="-2.1978754923"><ele>5.34</ele><time>2023-12-13T11:27:38Z</time></trkpt><trkpt lat="51.9154908042" lon="-2.1979718003"><ele>4.63</ele><time>2023-12-13T11:27:59Z</time></trkpt><trkpt lat="51.9154398423" lon="-2.1980607323"><ele>4.90</ele><time>2023-12-13T11:28:24Z</time></trkpt><trkpt lat="51.9154183008" lon="-2.1980811004"><ele>4.90</ele><time>2023-12-13T11:28:43Z</time></trkpt><trkpt lat="51.9152756408" lon="-2.1982168034"><ele>4.90</ele><time>2023-12-13T11:29:02Z</time></trkpt><trkpt lat="51.9150844496" lon="-2.1982878819"><ele>4.90</ele><time>2023-12-13T11:29:26Z</time></trkpt><trkpt lat="51.9149238523" lon="-2.1983158775"><ele>4.90</ele><time>2023-12-13T11:29:52Z</time></trkpt><trkpt lat="51.9147174899" lon="-2.1983514167"><ele>4.90</ele><time>2023-12-13T11:30:18Z</time></trkpt><trkpt lat="51.9145478401" lon="-2.1983718686"><ele>4.90</ele><time>2023-12-13T11:30:42Z</time></trkpt><trkpt lat="51.9143796153" lon="-2.1984656621"><ele>4.90</ele><time>2023-12-13T11:31:09Z</time></trkpt><trkpt lat="51.9141645357" lon="-2.1986663248"><ele>4.90</ele><time>2023-12-13T11:31:38Z</time></trkpt><trkpt lat="51.9139845762" lon="-2.1988867689"><ele>4.90</ele><time>2023-12-13T11:32:05Z</time></trkpt><trkpt lat="51.9138223864" lon="-2.1990808938"><ele>4.90</ele><time>2023-12-13T11:32:32Z</time></trkpt><trkpt lat="51.9137373101" lon="-2.1991850808"><ele>3.45</ele><time>2023-12-13T11:32:43Z</time></trkpt><trkpt lat="51.9135938119" lon="-2.1993756853"><ele>3.02</ele><time>2023-12-13T11:33:06Z</time></trkpt><trkpt lat="51.9135204703" lon="-2.1994764358"><ele>3.02</ele><time>2023-12-13T11:33:26Z</time></trkpt><trkpt lat="51.9134024531" lon="-2.1996336803"><ele>2.01</ele><time>2023-12-13T11:33:54Z</time></trkpt><trkpt lat="51.9133301172" lon="-2.1997884102"><ele>2.22</ele><time>2023-12-13T11:34:22Z</time></trkpt><trkpt lat="51.9132754672" lon="-2.1999221854"><ele>1.92</ele><time>2023-12-13T11:34:43Z</time></trkpt><trkpt lat="51.9131856132" lon="-2.2000714671"><ele>2.17</ele><time>2023-12-13T11:35:06Z</time></trkpt><trkpt lat="51.9130847789" lon="-2.2002736386"><ele>2.30</ele><time>2023-12-13T11:35:34Z</time></trkpt><trkpt lat="51.9129705336" lon="-2.2004754748"><ele>2.30</ele><time>2023-12-13T11:36:00Z</time></trkpt><trkpt lat="51.9128511753" lon="-2.2006468009"><ele>2.30</ele><time>2023-12-13T11:36:27Z</time></trkpt><trkpt lat="51.9127250277" lon="-2.2008472122"><ele>2.30</ele><time>2023-12-13T11:36:56Z</time></trkpt><trkpt lat="51.9126225170" lon="-2.2010207176"><ele>2.30</ele><time>2023-12-13T11:37:20Z</time></trkpt><trkpt lat="51.9125009794" lon="-2.2011981625"><ele>2.30</ele><time>2023-12-13T11:37:46Z</time></trkpt><trkpt lat="51.9123710599" lon="-2.2014024295"><ele>2.30</ele><time>2023-12-13T11:38:16Z</time></trkpt><trkpt lat="51.9122685492" lon="-2.2015933692"><ele>2.30</ele><time>2023-12-13T11:38:42Z</time></trkpt><trkpt lat="51.9121382106" lon="-2.2017717361"><ele>2.30</ele><time>2023-12-13T11:39:08Z</time></trkpt><trkpt lat="51.9120996539" lon="-2.2018288169"><ele>5.82</ele><time>2023-12-13T11:39:19Z</time></trkpt><trkpt lat="51.9120958820" lon="-2.2018355224"><ele>5.70</ele><time>2023-12-13T11:39:20Z</time></trkpt><trkpt lat="51.9120069500" lon="-2.2019895818"><ele>6.25</ele><time>2023-12-13T11:39:52Z</time></trkpt><trkpt lat="51.9120014179" lon="-2.2021713853"><ele>6.69</ele><time>2023-12-13T11:40:14Z</time></trkpt><trkpt lat="51.9120561518" lon="-2.2023917455"><ele>7.47</ele><time>2023-12-13T11:40:41Z</time></trkpt><trkpt lat="51.9120847341" lon="-2.2025222518"><ele>7.63</ele><time>2023-12-13T11:41:02Z</time></trkpt><trkpt lat="51.9121613447" lon="-2.2027742956"><ele>8.25</ele><time>2023-12-13T11:41:29Z</time></trkpt><trkpt lat="51.9121784437" lon="-2.2030013613"><ele>8.57</ele><time>2023-12-13T11:41:52Z</time></trkpt><trkpt lat="51.9121929444" lon="-2.2034076322"><ele>8.16</ele><time>2023-12-13T11:42:24Z</time></trkpt><trkpt lat="51.9122236222" lon="-2.2036634479"><ele>8.16</ele><time>2023-12-13T11:42:50Z</time></trkpt><trkpt lat="51.9122548029" lon="-2.2038705647"><ele>8.16</ele><time>2023-12-13T11:43:10Z</time></trkpt><trkpt lat="51.9123423100" lon="-2.2040664498"><ele>8.16</ele><time>2023-12-13T11:43:30Z</time></trkpt><trkpt lat="51.9124059286" lon="-2.2042656876"><ele>8.16</ele><time>2023-12-13T11:43:53Z</time></trkpt><trkpt lat="51.9124900829" lon="-2.2044997942"><ele>8.16</ele><time>2023-12-13T11:44:17Z</time></trkpt><trkpt lat="51.9125267118" lon="-2.2045795061"><ele>5.14</ele><time>2023-12-13T11:44:23Z</time></trkpt><trkpt lat="51.9125290588" lon="-2.2045892291"><ele>5.15</ele><time>2023-12-13T11:44:24Z</time></trkpt><trkpt lat="51.9125360157" lon="-2.2045808472"><ele>6.89</ele><time>2023-12-13T11:44:38Z</time></trkpt><trkpt lat="51.9125498459" lon="-2.2046191525"><ele>5.98</ele><time>2023-12-13T11:45:04Z</time></trkpt><trkpt lat="51.9125576410" lon="-2.2046953440"><ele>5.39</ele><time>2023-12-13T11:45:22Z</time></trkpt><trkpt lat="51.9126181584" lon="-2.2048038058"><ele>5.40</ele><time>2023-12-13T11:45:42Z</time></trkpt><trkpt lat="51.9127205014" lon="-2.2049954161"><ele>5.01</ele><time>2023-12-13T11:46:00Z</time></trkpt><trkpt lat="51.9127602316" lon="-2.2052896209"><ele>5.43</ele><time>2023-12-13T11:46:19Z</time></trkpt><trkpt lat="51.9128179830" lon="-2.2055656370"><ele>5.40</ele><time>2023-12-13T11:46:37Z</time></trkpt><trkpt lat="51.9128785003" lon="-2.2058367915"><ele>5.43</ele><time>2023-12-13T11:46:59Z</time></trkpt><trkpt lat="51.9130013790" lon="-2.2060686350"><ele>4.40</ele><time>2023-12-13T11:47:26Z</time></trkpt><trkpt lat="51.9131431170" lon="-2.2063431423"><ele>5.40</ele><time>2023-12-13T11:47:51Z</time></trkpt><trkpt lat="51.9133002777" lon="-2.2065720521"><ele>6.55</ele><time>2023-12-13T11:48:18Z</time></trkpt><trkpt lat="51.9134186301" lon="-2.2067345772"><ele>5.77</ele><time>2023-12-13T11:48:37Z</time></trkpt><trkpt lat="51.9135267567" lon="-2.2069615591"><ele>6.88</ele><time>2023-12-13T11:48:57Z</time></trkpt><trkpt lat="51.9136182033" lon="-2.2072275169"><ele>6.89</ele><time>2023-12-13T11:49:19Z</time></trkpt><trkpt lat="51.9136803132" lon="-2.2075080592"><ele>6.58</ele><time>2023-12-13T11:49:41Z</time></trkpt><trkpt lat="51.9137021061" lon="-2.2077448480"><ele>6.98</ele><time>2023-12-13T11:50:06Z</time></trkpt><trkpt lat="51.9137690775" lon="-2.2079744283"><ele>7.23</ele><time>2023-12-13T11:50:28Z</time></trkpt><trkpt lat="51.9138283376" lon="-2.2082444094"><ele>7.23</ele><time>2023-12-13T11:50:52Z</time></trkpt><trkpt lat="51.9139212091" lon="-2.2085682023"><ele>7.23</ele><time>2023-12-13T11:51:18Z</time></trkpt><trkpt lat="51.9140155055" lon="-2.2088184021"><ele>7.23</ele><time>2023-12-13T11:51:45Z</time></trkpt><trkpt lat="51.9141340256" lon="-2.2091440391"><ele>7.23</ele><time>2023-12-13T11:52:15Z</time></trkpt><trkpt lat="51.9142398052" lon="-2.2093717754"><ele>7.23</ele><time>2023-12-13T11:52:38Z</time></trkpt><trkpt lat="51.9143398851" lon="-2.2095528245"><ele>7.23</ele><time>2023-12-13T11:53:00Z</time></trkpt><trkpt lat="51.9143846445" lon="-2.2097060457"><ele>7.23</ele><time>2023-12-13T11:53:16Z</time></trkpt><trkpt lat="51.9144376181" lon="-2.2098421678"><ele>7.23</ele><time>2023-12-13T11:53:30Z</time></trkpt><trkpt lat="51.9145024102" lon="-2.2100453451"><ele>7.23</ele><time>2023-12-13T11:53:47Z</time></trkpt><trkpt lat="51.9145530369" lon="-2.2102420684"><ele>7.13</ele><time>2023-12-13T11:54:03Z</time></trkpt><trkpt lat="51.9146638457" lon="-2.2104149871"><ele>7.05</ele><time>2023-12-13T11:54:24Z</time></trkpt><trkpt lat="51.9148251973" lon="-2.2105091996"><ele>6.62</ele><time>2023-12-13T11:54:48Z</time></trkpt><trkpt lat="51.9149722997" lon="-2.2105443198"><ele>6.82</ele><time>2023-12-13T11:55:08Z</time></trkpt><trkpt lat="51.9151346572" lon="-2.2105439845"><ele>7.55</ele><time>2023-12-13T11:55:31Z</time></trkpt><trkpt lat="51.9152758084" lon="-2.2104064375"><ele>7.28</ele><time>2023-12-13T11:55:53Z</time></trkpt><trkpt lat="51.9154251739" lon="-2.2101904359"><ele>7.52</ele><time>2023-12-13T11:56:18Z</time></trkpt><trkpt lat="51.9155216496" lon="-2.2100330237"><ele>7.13</ele><time>2023-12-13T11:56:36Z</time></trkpt><trkpt lat="51.9155398384" lon="-2.2100085486"><ele>7.21</ele><time>2023-12-13T11:56:40Z</time></trkpt><trkpt lat="51.9156400859" lon="-2.2097798903"><ele>7.22</ele><time>2023-12-13T11:57:01Z</time></trkpt><trkpt lat="51.9156568497" lon="-2.2097220551"><ele>7.56</ele><time>2023-12-13T11:57:21Z</time></trkpt><trkpt lat="51.9157379866" lon="-2.2095442750"><ele>7.56</ele><time>2023-12-13T11:57:42Z</time></trkpt><trkpt lat="51.9157740287" lon="-2.2094047163"><ele>7.56</ele><time>2023-12-13T11:58:01Z</time></trkpt><trkpt lat="51.9158055447" lon="-2.2092495672"><ele>7.56</ele><time>2023-12-13T11:58:18Z</time></trkpt><trkpt lat="51.9158453587" lon="-2.2089437116"><ele>7.56</ele><time>2023-12-13T11:58:42Z</time></trkpt><trkpt lat="51.9158899505" lon="-2.2086526081"><ele>7.56</ele><time>2023-12-13T11:59:06Z</time></trkpt><trkpt lat="51.9159086421" lon="-2.2083579842"><ele>7.56</ele><time>2023-12-13T11:59:28Z</time></trkpt><trkpt lat="51.9159713387" lon="-2.2081207763"><ele>7.56</ele><time>2023-12-13T11:59:50Z</time></trkpt><trkpt lat="51.9160021842" lon="-2.2078077961"><ele>7.56</ele><time>2023-12-13T12:00:15Z</time></trkpt><trkpt lat="51.9159205444" lon="-2.2077148408"><ele>7.56</ele><time>2023-12-13T12:00:34Z</time></trkpt><trkpt lat="51.9159031939" lon="-2.2076967359"><ele>7.56</ele><time>2023-12-13T12:00:51Z</time></trkpt></trkseg></trk></gpx>